Destinations Hurghada International Airport

Hurghada International Airport (HEGN / HRG)

Flights to Hurghada International Airport

Flight number From ETE Dispatch
SPY-2318 EGFF Cardiff International Airport 05:45
SPY-610 EHGG Groningen Airport Eelde 04:55

Flights from Hurghada International Airport

Flight number To ETE Dispatch
SPY-2319 EGFF Cardiff International Airport 05:45
SPY-611 EHGG Groningen Airport Eelde
About

Hurghada International Airport facts

Hurghada International Airport is located in Hurghada at an elevation of 15.8 meters or 52 feet.

Currently, Speedy Airlines serves 4 flights to and from Hurghada International Airport.

Detailed airport info

Route map

Weather

Current weather

METAR

METAR

Metar data retrieved Sunday, 21 July 2024 at 20:25 UTC

HEGN 212000Z 00000KT CAVOK 34/12 Q1004 NOSIG
Wind Temperature
0 kt 34c